Pagina principale
METAR-TAF:

METAR-TAF

Aeroporti :

Ajaccio, Francia

Aeroporto di Ajaccio Napoleone Bonaparte

latitudine: 41-55N, longitudine: 008-48E, altezza: 6 m

Osservazione

Il bollettino è stato emesso 26 minuti fa, alle 00:30 UTC
Vento 4 kt da sud/sud-est
Temperature 12°C
Umidità 94%
Pressione 1014 hPa
Visibilità: 8000 m
Poco nuvoloso ad un'altezza di 3500 ft
Cielo coperto ad un'altezza di 10000 ft

METAR: LFKJ 170030Z AUTO 15004KT 8000 FEW035 OVC100 12/11 Q1014 BECMG 26015G25KT

Ora: 01:56 (00:56 UTC)

Previsione

Il bollettino è stato emesso 4 ore e 56 minuti fa, alle 20:00 UTC
Previsione valida dal 16 alle 21 UTC al 17 alle 21 UTC
Vento 15 kt da ovest con raffiche fino a 25 kt
Visibilità 10 km o più
Nuvoloso ad un'altezza di 2200 ft
Nuvoloso ad un'altezza di 6000 ft
Temporaneamente
dal 17 alle 06 UTC al 17 alle 12 UTC
Vento 20 kt da ovest/nord-ovest con raffiche fino a 35 kt

TAF: LFKJ 162000Z 1621/1721 26015G25KT 9999 BKN022 BKN060 TEMPO 1706/1712 29020G35KT

Osservazioni e previsioni meteorologiche di più di 4000 aeroporti (messaggi METAR e TAF).

Le stazioni disponibili sono rappresentate dai dischi gialli e rossi sulla carta.

Puntare il mouse per vedere il nome della stazione.

Clicca sopra per visualizzare le osservazioni e previsioni meteorologiche.

Per cambiare la mappa : fare clic sui pulsanti verdi con una croce nera per ingrandire, il pulsante verde con un trattino per diminuire, o sulla freccia verde per le mappe adiacenti.


METAR-TAF: